createdAt,value
2018-04-17T00:01:56.536Z,97.30
2018-04-17T00:04:24.094Z,97.30
2018-04-17T00:06:51.621Z,97.30
2018-04-17T00:09:19.174Z,97.10
2018-04-17T00:11:46.699Z,97.00
2018-04-17T00:14:14.301Z,97.10
2018-04-17T00:16:41.844Z,97.00
2018-04-17T00:19:09.359Z,96.90
2018-04-17T00:21:37.084Z,96.90
2018-04-17T00:24:04.605Z,96.70
2018-04-17T00:26:32.930Z,96.80
2018-04-17T00:29:00.488Z,96.70
2018-04-17T00:31:28.030Z,96.70
2018-04-17T00:33:55.572Z,96.70
2018-04-17T00:36:23.109Z,96.70
2018-04-17T00:38:50.650Z,96.50
2018-04-17T00:41:18.218Z,96.30
2018-04-17T00:43:45.732Z,96.50
2018-04-17T00:46:13.260Z,96.50
2018-04-17T00:48:41.648Z,96.30
2018-04-17T00:51:09.169Z,96.30
2018-04-17T00:53:48.554Z,96.30
2018-04-17T00:56:16.132Z,96.20
2018-04-17T00:58:43.673Z,96.30
2018-04-17T01:01:11.213Z,96.50
2018-04-17T01:03:38.763Z,96.50
2018-04-17T01:06:07.083Z,96.90
2018-04-17T01:08:34.593Z,96.80
2018-04-17T01:11:02.889Z,97.00
2018-04-17T01:13:30.475Z,97.00
2018-04-17T01:15:58.014Z,96.90
2018-04-17T01:18:25.686Z,97.00
2018-04-17T01:20:53.255Z,97.00
2018-04-17T01:23:20.802Z,97.40
2018-04-17T01:25:48.317Z,96.90
2018-04-17T01:28:17.211Z,97.00
2018-04-17T01:30:45.515Z,97.20
2018-04-17T01:33:13.038Z,97.20
2018-04-17T01:35:40.603Z,97.20
2018-04-17T01:38:08.167Z,97.40
2018-04-17T01:40:36.466Z,97.60
2018-04-17T01:43:04.004Z,97.60
2018-04-17T01:45:32.295Z,97.80
2018-04-17T01:47:59.833Z,97.80
2018-04-17T01:50:28.148Z,98.80
2018-04-17T01:52:55.673Z,98.80
2018-04-17T01:55:23.972Z,98.80
2018-04-17T01:57:51.538Z,98.80
2018-04-17T02:00:19.073Z,98.80
2018-04-17T02:02:47.361Z,98.90
2018-04-17T02:05:14.895Z,98.80
2018-04-17T02:07:42.430Z,99.40
2018-04-17T02:10:09.939Z,99.60
2018-04-17T02:12:37.470Z,99.60
2018-04-17T02:15:04.995Z,99.60
2018-04-17T02:17:32.653Z,99.90
2018-04-17T02:20:00.208Z,99.80
2018-04-17T02:22:29.151Z,99.90
2018-04-17T02:24:57.465Z,99.90
2018-04-17T02:27:24.991Z,99.90
2018-04-17T02:29:53.285Z,99.90
2018-04-17T02:32:22.249Z,99.90
2018-04-17T02:34:50.558Z,99.90
2018-04-17T02:37:18.072Z,99.90
2018-04-17T02:39:45.591Z,99.90
2018-04-17T02:42:13.120Z,99.90
2018-04-17T02:44:40.639Z,99.80
2018-04-17T02:47:08.268Z,99.90
2018-04-17T02:49:35.808Z,99.90
2018-04-17T02:52:03.365Z,99.90
2018-04-17T02:54:30.877Z,99.90
2018-04-17T02:56:58.381Z,99.90
2018-04-17T02:59:26.835Z,99.90
2018-04-17T03:01:55.138Z,99.90
2018-04-17T03:04:22.676Z,99.90
2018-04-17T03:06:50.200Z,99.90
2018-04-17T03:09:17.728Z,99.90
2018-04-17T03:11:45.260Z,99.90
2018-04-17T03:14:13.569Z,99.90
2018-04-17T03:16:41.157Z,99.90
2018-04-17T03:19:08.708Z,99.80
2018-04-17T03:21:36.268Z,99.80
2018-04-17T03:24:03.774Z,99.90
2018-04-17T03:26:31.339Z,99.90
2018-04-17T03:28:58.854Z,99.90
2018-04-17T03:31:26.390Z,99.90
2018-04-17T03:33:53.917Z,99.80
2018-04-17T03:36:21.464Z,99.80
2018-04-17T03:38:49.000Z,99.80
2018-04-17T03:41:18.109Z,99.90
2018-04-17T03:43:47.554Z,99.90
2018-04-17T03:46:15.071Z,99.90
2018-04-17T03:48:43.367Z,99.90
2018-04-17T03:51:11.657Z,99.90
2018-04-17T03:53:40.722Z,99.90
2018-04-17T03:56:09.011Z,99.90
2018-04-17T03:58:36.566Z,99.90
2018-04-17T04:01:04.108Z,99.90
2018-04-17T04:03:31.632Z,99.90
2018-04-17T04:05:59.184Z,99.90
2018-04-17T04:08:26.731Z,99.90
2018-04-17T04:10:54.274Z,99.90
2018-04-17T04:13:21.860Z,99.90
2018-04-17T04:15:49.388Z,99.90
2018-04-17T04:18:28.674Z,99.90
2018-04-17T04:21:08.036Z,99.90
2018-04-17T04:23:48.156Z,99.90
2018-04-17T04:26:27.542Z,99.90
2018-04-17T04:28:55.088Z,99.90
2018-04-17T04:31:22.682Z,99.90
2018-04-17T04:33:50.244Z,99.90
2018-04-17T04:36:17.799Z,99.90
2018-04-17T04:38:45.339Z,99.90
2018-04-17T04:41:12.962Z,99.90
2018-04-17T04:43:40.512Z,99.90
2018-04-17T04:46:08.032Z,99.90
2018-04-17T04:48:35.548Z,99.90
2018-04-17T04:51:03.102Z,99.90
2018-04-17T04:53:31.398Z,99.90
2018-04-17T04:55:59.037Z,99.90
2018-04-17T04:58:27.468Z,99.90
2018-04-17T05:00:55.026Z,99.90
2018-04-17T05:03:23.119Z,99.70
2018-04-17T05:05:50.627Z,99.10
2018-04-17T05:08:18.151Z,98.80
2018-04-17T05:10:45.697Z,98.90
2018-04-17T05:13:13.224Z,99.00
2018-04-17T05:15:40.740Z,98.50
2018-04-17T05:18:09.052Z,97.70
2018-04-17T05:20:36.576Z,97.60
2018-04-17T05:23:04.909Z,96.80
2018-04-17T05:25:32.562Z,96.80
2018-04-17T05:28:00.133Z,96.40
2018-04-17T05:30:27.776Z,95.20
2018-04-17T05:32:55.336Z,95.00
2018-04-17T05:35:22.883Z,94.40
2018-04-17T05:37:50.415Z,94.40
2018-04-17T05:40:18.736Z,94.00
2018-04-17T05:42:46.288Z,94.00
2018-04-17T05:45:13.948Z,93.50
2018-04-17T05:47:41.470Z,93.10
2018-04-17T05:50:09.758Z,92.10
2018-04-17T05:52:38.166Z,92.10
2018-04-17T05:55:05.763Z,92.10
2018-04-17T05:57:33.308Z,92.10
2018-04-17T06:00:00.855Z,91.50
2018-04-17T06:02:28.385Z,91.40
2018-04-17T06:04:55.897Z,90.80
2018-04-17T06:07:23.406Z,89.20
2018-04-17T06:09:50.967Z,87.20
2018-04-17T06:12:18.486Z,85.30
2018-04-17T06:14:46.061Z,81.70
2018-04-17T06:17:14.353Z,78.30
2018-04-17T06:19:41.922Z,78.30
2018-04-17T06:22:09.476Z,78.00
2018-04-17T06:24:37.027Z,76.90
2018-04-17T06:27:04.574Z,76.00
2018-04-17T06:29:32.932Z,75.40
2018-04-17T06:32:00.482Z,75.30
2018-04-17T06:34:28.015Z,75.30
2018-04-17T06:36:55.563Z,72.20
2018-04-17T06:39:23.086Z,71.20
2018-04-17T06:41:51.471Z,66.90
2018-04-17T06:44:18.968Z,66.80
2018-04-17T06:46:47.325Z,65.10
2018-04-17T06:49:14.868Z,65.00
2018-04-17T06:51:42.432Z,66.20
2018-04-17T06:54:09.982Z,65.70
2018-04-17T06:56:37.540Z,67.00
2018-04-17T06:59:05.857Z,65.40
2018-04-17T07:01:33.356Z,65.40
2018-04-17T07:04:00.894Z,64.20
2018-04-17T07:06:28.419Z,61.70
2018-04-17T07:08:55.926Z,61.20
2018-04-17T07:11:23.484Z,62.10
2018-04-17T07:13:51.042Z,61.40
2018-04-17T07:16:18.656Z,60.50
2018-04-17T07:18:46.199Z,60.70
2018-04-17T07:21:13.780Z,59.70
2018-04-17T07:23:41.336Z,59.90
2018-04-17T07:26:08.871Z,58.70
2018-04-17T07:28:36.419Z,59.70
2018-04-17T07:31:04.698Z,59.60
2018-04-17T07:33:32.283Z,59.60
2018-04-17T07:35:59.808Z,61.60
2018-04-17T07:38:28.216Z,58.50
2018-04-17T07:40:55.762Z,58.40
2018-04-17T07:43:23.300Z,58.10
2018-04-17T07:45:51.646Z,58.00
2018-04-17T07:48:31.097Z,58.00
2018-04-17T07:50:58.638Z,59.60
2018-04-17T07:53:26.188Z,59.40
2018-04-17T07:55:53.744Z,57.40
2018-04-17T07:58:21.258Z,54.90
2018-04-17T08:00:49.573Z,54.80
2018-04-17T08:03:17.089Z,54.60
2018-04-17T08:05:45.508Z,55.40
2018-04-17T08:08:13.184Z,55.40
2018-04-17T08:10:40.795Z,56.60
2018-04-17T08:13:09.082Z,57.60
2018-04-17T08:15:36.648Z,57.60
2018-04-17T08:18:04.169Z,57.00
2018-04-17T08:20:32.510Z,56.60
2018-04-17T08:23:00.081Z,56.60
2018-04-17T08:25:27.661Z,56.90
2018-04-17T08:27:55.216Z,55.60
2018-04-17T08:30:23.156Z,56.00
2018-04-17T08:32:50.710Z,52.60
2018-04-17T08:35:18.360Z,51.90
2018-04-17T08:37:45.879Z,50.20
2018-04-17T08:40:14.229Z,50.90
2018-04-17T08:42:41.851Z,50.80
2018-04-17T08:45:10.113Z,52.30
2018-04-17T08:47:37.632Z,51.60
2018-04-17T08:50:05.190Z,51.70
2018-04-17T08:52:32.738Z,49.20
2018-04-17T08:55:00.300Z,47.50
2018-04-17T08:57:27.825Z,48.90
2018-04-17T08:59:55.347Z,49.70
2018-04-17T09:02:23.683Z,47.10
2018-04-17T09:04:51.241Z,47.00
2018-04-17T09:07:18.786Z,47.20
2018-04-17T09:09:46.311Z,47.50
2018-04-17T09:12:14.632Z,45.50
2018-04-17T09:14:42.170Z,45.50
2018-04-17T09:17:09.693Z,46.10
2018-04-17T09:19:37.331Z,41.10
2018-04-17T09:22:04.875Z,40.80
2018-04-17T09:24:32.470Z,42.80
2018-04-17T09:27:00.885Z,43.60
2018-04-17T09:29:28.447Z,43.50
2018-04-17T09:31:55.989Z,42.80
2018-04-17T09:34:23.543Z,44.60
2018-04-17T09:36:51.848Z,43.60
2018-04-17T09:39:19.385Z,43.50
2018-04-17T09:41:46.937Z,41.00
2018-04-17T09:44:15.249Z,44.00
2018-04-17T09:46:42.861Z,44.00
2018-04-17T09:49:11.245Z,46.30
2018-04-17T09:51:39.540Z,43.60
2018-04-17T09:54:07.081Z,43.60
2018-04-17T09:56:35.411Z,40.10
2018-04-17T09:59:02.941Z,40.10
2018-04-17T10:01:30.473Z,40.90
2018-04-17T10:03:58.027Z,40.70
2018-04-17T10:06:26.342Z,39.30
2018-04-17T10:08:53.984Z,39.30
2018-04-17T10:11:21.465Z,38.50
2018-04-17T10:13:49.006Z,36.80
2018-04-17T10:16:16.550Z,34.80
2018-04-17T10:18:44.860Z,30.60
2018-04-17T10:21:12.395Z,30.50
2018-04-17T10:23:39.928Z,34.40
2018-04-17T10:26:08.230Z,37.30
2018-04-17T10:28:35.749Z,37.30
2018-04-17T10:31:03.339Z,39.50
2018-04-17T10:33:31.624Z,40.40
2018-04-17T10:35:59.197Z,40.40
2018-04-17T10:38:26.755Z,45.80
2018-04-17T10:40:54.319Z,43.30
2018-04-17T10:43:21.896Z,41.10
2018-04-17T10:45:49.439Z,39.90
2018-04-17T10:48:17.024Z,38.30
2018-04-17T10:50:44.582Z,38.10
2018-04-17T10:53:12.087Z,37.80
2018-04-17T10:55:40.381Z,37.30
2018-04-17T10:58:07.885Z,37.30
2018-04-17T11:00:35.443Z,39.70
2018-04-17T11:03:02.957Z,38.80
2018-04-17T11:05:30.499Z,36.40
2018-04-17T11:07:58.019Z,37.70
2018-04-17T11:10:25.640Z,35.80
2018-04-17T11:12:57.471Z,34.10
2018-04-17T11:15:26.957Z,32.60
2018-04-17T11:17:54.531Z,32.50
2018-04-17T11:20:22.830Z,33.20
2018-04-17T11:22:51.443Z,33.20
2018-04-17T11:25:18.955Z,32.40
2018-04-17T11:27:47.247Z,32.70
2018-04-17T11:30:14.769Z,32.80
2018-04-17T11:32:42.343Z,36.60
2018-04-17T11:35:09.898Z,37.80
2018-04-17T11:37:38.224Z,36.00
2018-04-17T11:40:05.739Z,35.90
2018-04-17T11:42:34.083Z,36.90
2018-04-17T11:45:02.802Z,36.90
2018-04-17T11:47:30.327Z,38.50
2018-04-17T11:49:57.888Z,40.70
2018-04-17T11:52:25.446Z,40.50
2018-04-17T11:54:53.012Z,41.60
2018-04-17T11:57:20.530Z,42.60
2018-04-17T11:59:48.091Z,39.80
2018-04-17T12:02:15.669Z,37.90
2018-04-17T12:04:43.193Z,35.30
2018-04-17T12:07:10.740Z,34.20
2018-04-17T12:09:38.274Z,34.50
2018-04-17T12:12:05.852Z,30.60
2018-04-17T12:14:33.380Z,32.80
2018-04-17T12:17:01.187Z,32.10
2018-04-17T12:19:28.721Z,31.50
2018-04-17T12:21:57.002Z,32.10
2018-04-17T12:24:25.307Z,30.70
2018-04-17T12:26:52.895Z,30.70
2018-04-17T12:29:20.447Z,31.20
2018-04-17T12:31:48.024Z,31.40
2018-04-17T12:34:15.610Z,31.20
2018-04-17T12:36:43.890Z,36.30
2018-04-17T12:39:12.194Z,34.70
2018-04-17T12:41:39.745Z,34.70
2018-04-17T12:44:07.280Z,34.80
2018-04-17T12:46:34.824Z,32.50
2018-04-17T12:49:02.353Z,30.00
2018-04-17T12:51:29.900Z,31.10
2018-04-17T12:53:57.501Z,31.10
2018-04-17T12:56:25.057Z,33.90
2018-04-17T12:58:52.591Z,35.40
2018-04-17T13:01:20.127Z,36.70
2018-04-17T13:03:48.188Z,37.70
2018-04-17T13:06:15.704Z,38.80
2018-04-17T13:08:43.242Z,39.30
2018-04-17T13:11:10.765Z,41.40
2018-04-17T13:13:38.283Z,41.00
2018-04-17T13:16:05.838Z,41.30
2018-04-17T13:18:33.350Z,39.00
2018-04-17T13:21:00.889Z,34.50
2018-04-17T13:23:28.503Z,28.90
2018-04-17T13:25:56.041Z,28.50
2018-04-17T13:28:23.567Z,28.70
2018-04-17T13:30:51.876Z,27.90
2018-04-17T13:33:19.407Z,27.90
2018-04-17T13:35:47.057Z,28.30
2018-04-17T13:38:15.340Z,30.00
2018-04-17T13:40:42.870Z,30.00
2018-04-17T13:43:10.401Z,34.50
2018-04-17T13:45:37.945Z,37.20
2018-04-17T13:48:05.491Z,38.90
2018-04-17T13:50:33.016Z,40.00
2018-04-17T13:53:01.332Z,39.40
2018-04-17T13:55:28.990Z,39.40
2018-04-17T13:57:56.553Z,41.50
2018-04-17T14:00:24.479Z,41.50
2018-04-17T14:02:52.779Z,41.90
2018-04-17T14:05:20.361Z,41.90
2018-04-17T14:07:47.920Z,42.00
2018-04-17T14:10:15.450Z,42.10
2018-04-17T14:12:43.747Z,41.80
2018-04-17T14:15:11.308Z,41.80
2018-04-17T14:17:38.859Z,41.30
2018-04-17T14:20:06.411Z,41.60
2018-04-17T14:22:33.987Z,40.10
2018-04-17T14:25:01.552Z,38.20
2018-04-17T14:27:29.146Z,35.60
2018-04-17T14:29:57.415Z,33.40
2018-04-17T14:32:24.989Z,33.80
2018-04-17T14:34:52.528Z,33.80
2018-04-17T14:37:20.034Z,34.40
2018-04-17T14:39:47.591Z,35.70
2018-04-17T14:42:15.885Z,34.10
2018-04-17T14:44:43.473Z,34.10
2018-04-17T14:47:11.013Z,35.30
2018-04-17T14:49:38.566Z,36.80
2018-04-17T14:52:06.096Z,37.90
2018-04-17T14:54:34.371Z,38.70
2018-04-17T14:57:01.906Z,38.60
2018-04-17T14:59:30.210Z,39.60
2018-04-17T15:01:57.752Z,39.00
2018-04-17T15:04:26.052Z,39.00
2018-04-17T15:06:53.585Z,39.00
2018-04-17T15:09:21.131Z,38.40
2018-04-17T15:11:48.649Z,38.60
2018-04-17T15:14:16.185Z,38.90
2018-04-17T15:16:43.737Z,38.70
2018-04-17T15:19:12.112Z,39.40
2018-04-17T15:21:40.392Z,38.40
2018-04-17T15:24:08.683Z,37.60
2018-04-17T15:26:36.283Z,37.50
2018-04-17T15:29:03.824Z,37.50
2018-04-17T15:31:31.383Z,38.10
2018-04-17T15:33:58.932Z,38.60
2018-04-17T15:36:26.492Z,38.20
2018-04-17T15:38:54.021Z,39.40
2018-04-17T15:41:22.327Z,39.30
2018-04-17T15:43:49.891Z,39.20
2018-04-17T15:46:17.460Z,39.00
2018-04-17T15:48:45.015Z,39.00
2018-04-17T15:51:12.592Z,39.10
2018-04-17T15:53:40.136Z,39.10
2018-04-17T15:56:07.680Z,38.80
2018-04-17T15:58:35.221Z,39.20
2018-04-17T16:01:02.735Z,39.40
2018-04-17T16:03:30.318Z,39.30
2018-04-17T16:05:58.021Z,39.40
2018-04-17T16:08:25.559Z,39.20
2018-04-17T16:10:53.133Z,38.60
2018-04-17T16:13:20.665Z,39.20
2018-04-17T16:15:49.027Z,39.20
2018-04-17T16:18:17.321Z,39.20
2018-04-17T16:20:45.641Z,38.80
2018-04-17T16:23:13.219Z,38.70
2018-04-17T16:25:40.785Z,38.40
2018-04-17T16:28:08.313Z,38.50
2018-04-17T16:30:35.867Z,38.20
2018-04-17T16:33:03.532Z,37.20
2018-04-17T16:35:31.903Z,36.70
2018-04-17T16:37:59.452Z,36.60
2018-04-17T16:40:26.973Z,35.50
2018-04-17T16:42:55.265Z,35.40
2018-04-17T16:45:24.327Z,36.00
2018-04-17T16:47:51.913Z,35.90
2018-04-17T16:50:19.452Z,36.60
2018-04-17T16:52:47.052Z,36.80
2018-04-17T16:55:14.587Z,36.70
2018-04-17T16:57:42.880Z,36.20
2018-04-17T17:00:11.239Z,36.30
2018-04-17T17:02:39.544Z,36.50
2018-04-17T17:05:07.079Z,36.40
2018-04-17T17:07:35.417Z,37.20
2018-04-17T17:10:03.084Z,37.00
2018-04-17T17:12:30.652Z,36.50
2018-04-17T17:14:58.165Z,36.30
2018-04-17T17:17:25.804Z,37.10
2018-04-17T17:19:54.116Z,38.00
2018-04-17T17:22:21.771Z,37.80
2018-04-17T17:24:49.306Z,38.80
2018-04-17T17:27:16.843Z,38.70
2018-04-17T17:29:44.429Z,39.00
2018-04-17T17:32:11.951Z,39.30
2018-04-17T17:34:40.773Z,39.60
2018-04-17T17:37:08.342Z,39.50
2018-04-17T17:39:35.911Z,39.40
2018-04-17T17:42:03.576Z,39.60
2018-04-17T17:44:31.182Z,39.90
2018-04-17T17:46:58.737Z,40.10
2018-04-17T17:49:26.284Z,40.50
2018-04-17T17:51:53.864Z,41.00
2018-04-17T17:54:21.402Z,41.50
2018-04-17T17:56:48.939Z,41.70
2018-04-17T18:01:50.470Z,42.60
2018-04-17T18:04:18.787Z,43.90
2018-04-17T18:06:47.468Z,43.90
2018-04-17T18:09:15.026Z,43.70
2018-04-17T18:11:43.964Z,44.30
2018-04-17T18:14:12.295Z,44.70
2018-04-17T18:16:39.894Z,44.60
2018-04-17T18:19:07.464Z,45.30
2018-04-17T18:21:35.931Z,45.80
2018-04-17T18:24:03.616Z,45.70
2018-04-17T18:26:31.822Z,46.70
2018-04-17T18:29:00.064Z,47.80
2018-04-17T18:31:28.402Z,47.70
2018-04-17T18:33:55.954Z,47.60
2018-04-17T18:36:23.546Z,48.20
2018-04-17T18:38:51.088Z,49.10
2018-04-17T18:41:18.637Z,49.10
2018-04-17T18:43:46.246Z,49.70
2018-04-17T18:46:15.148Z,51.70
2018-04-17T18:48:42.792Z,51.60
2018-04-17T18:51:11.453Z,52.60
2018-04-17T18:53:39.011Z,52.50
2018-04-17T18:56:06.591Z,53.70
2018-04-17T18:58:34.901Z,54.20
2018-04-17T19:01:03.070Z,54.10
2018-04-17T19:03:30.729Z,54.70
2018-04-17T19:05:59.131Z,55.10
2018-04-17T19:08:26.739Z,55.60
2018-04-17T19:10:54.420Z,56.20
2018-04-17T19:13:22.464Z,56.10
2018-04-17T19:15:50.050Z,57.00
2018-04-17T19:18:17.864Z,57.60
2018-04-17T19:20:46.534Z,58.60
2018-04-17T19:23:14.912Z,58.90
2018-04-17T19:25:42.682Z,58.90
2018-04-17T19:28:10.526Z,59.60
2018-04-17T19:30:38.094Z,60.00
2018-04-17T19:33:05.653Z,60.70
2018-04-17T19:35:33.396Z,61.60
2018-04-17T19:38:00.977Z,62.30
2018-04-17T19:40:28.603Z,63.00
2018-04-17T19:42:56.221Z,63.40
2018-04-17T19:45:23.748Z,64.10
2018-04-17T19:47:51.361Z,64.70
2018-04-17T19:50:19.742Z,65.20
2018-04-17T19:52:47.387Z,65.20
2018-04-17T19:55:15.371Z,66.10
2018-04-17T19:57:42.983Z,66.50
2018-04-17T20:00:10.546Z,66.90
2018-04-17T20:02:38.932Z,67.80
2018-04-17T20:05:06.524Z,68.10
2018-04-17T20:07:34.049Z,68.10
2018-04-17T20:10:01.617Z,67.90
2018-04-17T20:12:29.171Z,68.70
2018-04-17T20:14:56.837Z,69.10
2018-04-17T20:17:24.383Z,70.10
2018-04-17T20:19:52.045Z,70.50
2018-04-17T20:22:19.614Z,71.00
2018-04-17T20:24:47.191Z,72.10
2018-04-17T20:27:14.732Z,72.50
2018-04-17T20:29:42.256Z,72.60
2018-04-17T20:32:09.799Z,73.20
2018-04-17T20:34:38.131Z,73.60
2018-04-17T20:37:06.467Z,73.80
2018-04-17T20:39:34.097Z,73.70
2018-04-17T20:42:01.648Z,73.50
2018-04-17T20:44:29.252Z,74.10
2018-04-17T20:46:57.649Z,74.10
2018-04-17T20:49:25.167Z,74.10
2018-04-17T20:51:52.882Z,73.90
2018-04-17T20:54:20.475Z,73.40
2018-04-17T20:56:48.035Z,74.30
2018-04-17T20:59:15.626Z,74.50
2018-04-17T21:01:43.216Z,74.50
2018-04-17T21:04:10.776Z,74.60
2018-04-17T21:06:38.369Z,74.40
2018-04-17T21:09:06.186Z,76.00
2018-04-17T21:11:33.745Z,75.80
2018-04-17T21:14:01.418Z,75.30
2018-04-17T21:16:29.002Z,75.00
2018-04-17T21:18:56.656Z,74.50
2018-04-17T21:21:24.190Z,75.00
2018-04-17T21:23:51.705Z,75.80
2018-04-17T21:26:20.261Z,77.00
2018-04-17T21:28:47.779Z,76.20
2018-04-17T21:31:15.351Z,77.20
2018-04-17T21:33:42.900Z,77.20
2018-04-17T21:36:10.487Z,77.70
2018-04-17T21:38:39.203Z,76.70
2018-04-17T21:41:06.756Z,77.80
2018-04-17T21:43:34.300Z,78.30
2018-04-17T21:46:01.947Z,79.20
2018-04-17T21:48:29.601Z,79.10
2018-04-17T21:50:57.143Z,79.60
2018-04-17T21:53:24.699Z,79.40
2018-04-17T21:55:52.251Z,79.20
2018-04-17T21:58:19.813Z,79.50
2018-04-17T22:00:47.338Z,79.90
2018-04-17T22:03:14.892Z,79.80
2018-04-17T22:05:42.460Z,79.70
2018-04-17T22:08:10.823Z,80.00
2018-04-17T22:10:38.424Z,80.00
2018-04-17T22:13:05.976Z,80.10
2018-04-17T22:15:33.524Z,80.00
2018-04-17T22:18:01.811Z,80.70
2018-04-17T22:20:29.351Z,80.70
2018-04-17T22:22:56.929Z,81.10
2018-04-17T22:25:24.517Z,81.40
2018-04-17T22:27:52.115Z,82.00
2018-04-17T22:30:19.639Z,82.30
2018-04-17T22:32:47.221Z,83.30
2018-04-17T22:35:14.813Z,83.20
2018-04-17T22:37:43.400Z,83.80
2018-04-17T22:40:10.959Z,83.80
2018-04-17T22:42:39.350Z,83.70
2018-04-17T22:45:06.881Z,83.70
2018-04-17T22:47:35.191Z,83.80
2018-04-17T22:50:02.830Z,83.80
2018-04-17T22:52:31.147Z,82.60
2018-04-17T22:54:58.681Z,82.40
2018-04-17T22:57:26.286Z,82.90
2018-04-17T22:59:53.843Z,83.40
2018-04-17T23:02:21.491Z,83.50
2018-04-17T23:04:49.846Z,83.80
2018-04-17T23:07:17.418Z,83.70
2018-04-17T23:09:44.984Z,83.90
2018-04-17T23:12:12.531Z,84.60
2018-04-17T23:14:40.106Z,84.70
2018-04-17T23:17:07.703Z,84.50
2018-04-17T23:19:35.267Z,84.60
2018-04-17T23:22:02.797Z,84.70
2018-04-17T23:24:30.396Z,84.60
2018-04-17T23:26:58.714Z,84.40
2018-04-17T23:29:26.303Z,84.40
2018-04-17T23:31:53.877Z,84.10
2018-04-17T23:34:21.471Z,83.70
2018-04-17T23:36:49.066Z,83.20
2018-04-17T23:39:16.610Z,83.40
2018-04-17T23:41:44.191Z,83.80
2018-04-17T23:44:11.722Z,84.20
2018-04-17T23:46:39.307Z,84.80
2018-04-17T23:49:06.844Z,84.20
2018-04-17T23:51:34.428Z,85.70
2018-04-17T23:54:01.958Z,85.50
2018-04-17T23:56:29.527Z,86.00
2018-04-17T23:58:57.072Z,86.30
